createdAt,value
2018-11-23T00:03:20.227Z,100559.92
2018-11-23T00:07:23.738Z,100562.43
2018-11-23T00:11:27.295Z,100570.70
2018-11-23T00:15:30.853Z,100568.04
2018-11-23T00:19:34.410Z,100575.94
2018-11-23T00:23:37.894Z,100579.81
2018-11-23T00:27:41.450Z,100587.55
2018-11-23T00:31:44.970Z,100590.98
2018-11-23T00:35:48.579Z,100587.00
2018-11-23T00:39:52.084Z,100586.06
2018-11-23T00:43:55.644Z,100591.69
2018-11-23T00:47:59.751Z,100599.54
2018-11-23T00:52:03.270Z,100601.78
2018-11-23T00:56:06.774Z,100604.00
2018-11-23T01:00:20.567Z,100591.03
2018-11-23T01:04:24.075Z,100591.19
2018-11-23T01:08:27.615Z,100596.42
2018-11-23T01:12:31.104Z,100598.66
2018-11-23T01:16:34.617Z,100588.20
2018-11-23T01:20:38.209Z,100593.05
2018-11-23T01:24:41.699Z,100603.20
2018-11-23T01:28:45.237Z,100589.61
2018-11-23T01:32:48.749Z,100598.28
2018-11-23T01:36:52.329Z,100589.98
2018-11-23T01:40:55.918Z,100583.45
2018-11-23T01:44:59.391Z,100583.45
2018-11-23T01:49:02.946Z,100582.97
2018-11-23T01:53:06.458Z,100589.51
2018-11-23T01:57:09.957Z,100592.13
2018-11-23T02:01:13.515Z,100590.70
2018-11-23T02:05:17.049Z,100598.05
2018-11-23T02:09:20.632Z,100596.26
2018-11-23T02:13:24.138Z,100601.11
2018-11-23T02:17:27.625Z,100592.34
2018-11-23T02:21:31.123Z,100586.23
2018-11-23T02:25:34.783Z,100589.22
2018-11-23T02:29:38.310Z,100586.60
2018-11-23T02:33:42.116Z,100586.60
2018-11-23T02:37:45.635Z,100584.81
2018-11-23T02:41:49.172Z,100590.58
2018-11-23T02:45:52.733Z,100587.38
2018-11-23T02:49:56.257Z,100585.23
2018-11-23T02:53:59.721Z,100589.98
2018-11-23T02:58:04.088Z,100588.63
2018-11-23T03:02:07.611Z,100587.32
2018-11-23T03:06:11.143Z,100593.86
2018-11-23T03:10:15.570Z,100587.69
2018-11-23T03:14:19.075Z,100587.69
2018-11-23T03:18:22.556Z,100589.00
2018-11-23T03:22:26.099Z,100582.02
2018-11-23T03:26:29.678Z,100588.50
2018-11-23T03:30:33.247Z,100588.89
2018-11-23T03:34:37.723Z,100590.68
2018-11-23T03:38:41.359Z,100595.48
2018-11-23T03:42:44.867Z,100597.70
2018-11-23T03:46:48.424Z,100596.39
2018-11-23T03:50:51.953Z,100595.91
2018-11-23T03:54:55.586Z,100593.30
2018-11-23T03:58:59.337Z,100593.72
2018-11-23T04:03:03.573Z,100597.11
2018-11-23T04:07:08.171Z,100594.98
2018-11-23T04:11:11.789Z,100596.73
2018-11-23T04:15:16.613Z,100598.91
2018-11-23T04:19:22.560Z,100594.13
2018-11-23T04:23:26.521Z,100598.64
2018-11-23T04:27:30.969Z,100598.20
2018-11-23T04:31:34.801Z,100596.09
2018-11-23T04:35:38.699Z,100602.63
2018-11-23T04:39:42.594Z,100600.56
2018-11-23T04:43:46.530Z,100609.28
2018-11-23T04:47:50.349Z,100604.98
2018-11-23T04:51:54.191Z,100608.91
2018-11-23T04:55:58.279Z,100608.96
2018-11-23T05:00:02.578Z,100614.73
2018-11-23T05:04:06.412Z,100610.86
2018-11-23T05:08:10.105Z,100603.46
2018-11-23T05:12:15.131Z,100606.51
2018-11-23T05:16:19.021Z,100613.55
2018-11-23T05:20:23.541Z,100611.84
2018-11-23T05:24:31.516Z,100618.39
2018-11-23T05:28:35.676Z,100619.75
2018-11-23T05:32:40.110Z,100627.99
2018-11-23T05:36:44.055Z,100630.27
2018-11-23T05:40:48.123Z,100631.91
2018-11-23T05:44:56.204Z,100629.73
2018-11-23T05:49:00.218Z,100628.85
2018-11-23T05:53:05.072Z,100631.03
2018-11-23T05:57:09.128Z,100631.78
2018-11-23T06:01:13.200Z,100641.82
2018-11-23T06:05:18.105Z,100647.48
2018-11-23T06:09:22.245Z,100638.33
2018-11-23T06:13:28.186Z,100647.88
2018-11-23T06:17:32.092Z,100651.48
2018-11-23T06:21:35.966Z,100652.77
2018-11-23T06:25:42.624Z,100657.03
2018-11-23T06:29:46.577Z,100657.14
2018-11-23T06:33:50.697Z,100656.42
2018-11-23T06:37:54.526Z,100659.49
2018-11-23T06:42:05.693Z,100669.12
2018-11-23T06:46:11.777Z,100673.83
2018-11-23T06:50:16.026Z,100679.43
2018-11-23T06:54:20.115Z,100679.97
2018-11-23T06:58:24.097Z,100687.33
2018-11-23T07:02:27.957Z,100693.05
2018-11-23T07:06:31.784Z,100693.45
2018-11-23T07:10:35.689Z,100697.73
2018-11-23T07:14:40.636Z,100710.77
2018-11-23T07:18:44.608Z,100715.68
2018-11-23T07:22:48.455Z,100711.81
2018-11-23T07:26:52.429Z,100701.34
2018-11-23T07:31:02.090Z,100707.13
2018-11-23T07:35:01.318Z,100701.34
2018-11-23T07:39:06.504Z,100702.66
2018-11-23T07:43:10.334Z,100710.50
2018-11-23T07:47:14.203Z,100709.31
2018-11-23T07:51:17.952Z,100716.30
2018-11-23T07:55:21.534Z,100718.97
2018-11-23T07:59:25.314Z,100708.56
2018-11-23T08:03:28.840Z,100714.17
2018-11-23T08:07:32.460Z,100722.02
2018-11-23T08:11:36.255Z,100719.40
2018-11-23T08:15:39.791Z,100716.89
2018-11-23T08:19:47.401Z,100719.14
2018-11-23T08:23:47.027Z,100710.59
2018-11-23T08:27:51.819Z,100705.31
2018-11-23T08:31:55.391Z,100704.86
2018-11-23T08:35:58.954Z,100703.17
2018-11-23T08:40:03.606Z,100707.05
2018-11-23T08:44:07.230Z,100702.19
2018-11-23T08:48:10.835Z,100711.84
2018-11-23T08:52:14.417Z,100707.10
2018-11-23T08:56:18.635Z,100713.22
2018-11-23T09:00:27.737Z,100711.14
2018-11-23T09:04:31.339Z,100706.35
2018-11-23T09:08:34.946Z,100705.53
2018-11-23T09:12:38.667Z,100702.42
2018-11-23T09:16:42.272Z,100700.78
2018-11-23T09:20:46.793Z,100702.48
2018-11-23T09:24:50.387Z,100709.19
2018-11-23T09:28:55.867Z,100700.59
2018-11-23T09:32:59.621Z,100705.82
2018-11-23T09:37:04.852Z,100706.75
2018-11-23T09:41:08.415Z,100707.67
2018-11-23T09:45:18.710Z,100703.31
2018-11-23T09:49:22.665Z,100703.37
2018-11-23T09:53:28.767Z,100697.31
2018-11-23T09:57:32.535Z,100700.91
2018-11-23T10:01:36.272Z,100688.33
2018-11-23T10:05:39.799Z,100690.44
2018-11-23T10:09:43.367Z,100686.96
2018-11-23T10:13:58.411Z,100678.84
2018-11-23T10:18:02.810Z,100678.12
2018-11-23T10:22:06.710Z,100674.64
2018-11-23T10:26:10.434Z,100679.42
2018-11-23T10:30:17.025Z,100675.06
2018-11-23T10:34:33.826Z,100667.77
2018-11-23T10:38:38.599Z,100661.17
2018-11-23T10:42:42.589Z,100664.27
2018-11-23T10:46:46.746Z,100669.94
2018-11-23T10:50:53.851Z,100670.25
2018-11-23T10:54:57.497Z,100678.64
2018-11-23T10:59:01.292Z,100675.83
2018-11-23T11:03:10.075Z,100674.46
2018-11-23T11:07:13.916Z,100672.33
2018-11-23T11:11:17.720Z,100670.78
2018-11-23T11:15:21.751Z,100673.91
2018-11-23T11:19:25.403Z,100656.44
2018-11-23T11:23:28.923Z,100650.23
2018-11-23T11:27:32.433Z,100643.19
2018-11-23T11:31:35.942Z,100641.11
2018-11-23T11:35:39.505Z,100632.75
2018-11-23T11:39:43.193Z,100618.30
2018-11-23T11:43:46.782Z,100613.84
2018-11-23T11:47:50.345Z,100610.34
2018-11-23T11:51:53.832Z,100611.22
2018-11-23T11:55:57.408Z,100614.61
2018-11-23T12:00:01.364Z,100610.25
2018-11-23T12:04:05.026Z,100621.63
2018-11-23T12:08:08.597Z,100598.80
2018-11-23T12:12:12.153Z,100595.80
2018-11-23T12:16:15.706Z,100603.30
2018-11-23T12:20:21.642Z,100607.30
2018-11-23T12:24:25.277Z,100597.73
2018-11-23T12:28:29.836Z,100587.75
2018-11-23T12:32:33.902Z,100590.84
2018-11-23T12:36:38.764Z,100586.91
2018-11-23T12:40:43.147Z,100593.91
2018-11-23T12:44:46.938Z,100582.13
2018-11-23T12:48:53.432Z,100576.16
2018-11-23T12:53:06.175Z,100569.51
2018-11-23T12:57:04.141Z,100569.51
2018-11-23T13:01:08.014Z,100563.39
2018-11-23T13:05:11.859Z,100567.66
2018-11-23T13:09:15.858Z,100570.72
2018-11-23T13:13:19.889Z,100566.89
2018-11-23T13:17:23.931Z,100566.12
2018-11-23T13:21:27.841Z,100562.67
2018-11-23T13:25:33.105Z,100563.50
2018-11-23T13:29:36.957Z,100554.28
2018-11-23T13:33:40.890Z,100553.02
2018-11-23T13:37:45.724Z,100560.49
2018-11-23T13:41:49.679Z,100565.28
2018-11-23T13:45:54.420Z,100553.95
2018-11-23T13:49:59.973Z,100550.92
2018-11-23T13:54:04.211Z,100552.63
2018-11-23T13:58:08.428Z,100558.69
2018-11-23T14:02:13.448Z,100560.88
2018-11-23T14:06:17.342Z,100560.09
2018-11-23T14:10:23.258Z,100553.55
2018-11-23T14:14:27.973Z,100547.39
2018-11-23T14:18:32.353Z,100559.13
2018-11-23T14:22:37.750Z,100557.34
2018-11-23T14:26:41.588Z,100550.78
2018-11-23T14:30:47.516Z,100541.62
2018-11-23T14:34:52.079Z,100532.45
2018-11-23T14:38:56.783Z,100520.57
2018-11-23T14:43:00.781Z,100527.59
2018-11-23T14:47:04.866Z,100521.09
2018-11-23T14:51:09.459Z,100511.11
2018-11-23T14:55:14.158Z,100504.91
2018-11-23T14:59:18.557Z,100501.02
2018-11-23T15:03:23.332Z,100490.11
2018-11-23T15:07:27.534Z,100493.98
2018-11-23T15:11:31.286Z,100502.28
2018-11-23T15:15:36.883Z,100513.19
2018-11-23T15:19:40.482Z,100525.95
2018-11-23T15:23:44.540Z,100512.80
2018-11-23T15:27:48.156Z,100510.19
2018-11-23T15:31:51.710Z,100517.12
2018-11-23T15:35:55.207Z,100510.19
2018-11-23T15:39:58.764Z,100512.47
2018-11-23T15:44:02.304Z,100505.96
2018-11-23T15:48:06.842Z,100498.98
2018-11-23T15:52:10.346Z,100498.48
2018-11-23T15:56:14.218Z,100500.63
2018-11-23T16:00:21.279Z,100498.48
2018-11-23T16:04:24.788Z,100494.95
2018-11-23T16:08:28.303Z,100493.98
2018-11-23T16:12:32.043Z,100488.75
2018-11-23T16:16:36.918Z,100490.92
2018-11-23T16:20:42.765Z,100497.86
2018-11-23T16:24:46.413Z,100490.45
2018-11-23T16:28:49.971Z,100481.71
2018-11-23T16:32:54.630Z,100489.19
2018-11-23T16:36:58.156Z,100489.53
2018-11-23T16:41:01.644Z,100489.14
2018-11-23T16:45:06.990Z,100485.69
2018-11-23T16:49:10.510Z,100472.59
2018-11-23T16:53:14.143Z,100483.52
2018-11-23T16:57:17.953Z,100484.37
2018-11-23T17:01:21.484Z,100471.72
2018-11-23T17:05:26.862Z,100471.19
2018-11-23T17:09:30.606Z,100466.43
2018-11-23T17:13:34.180Z,100465.52
2018-11-23T17:17:38.015Z,100464.64
2018-11-23T17:21:41.670Z,100467.73
2018-11-23T17:25:45.219Z,100470.41
2018-11-23T17:29:48.776Z,100465.22
2018-11-23T17:33:52.754Z,100459.98
2018-11-23T17:37:56.327Z,100453.39
2018-11-23T17:41:59.882Z,100446.83
2018-11-23T17:46:03.476Z,100442.81
2018-11-23T17:50:09.575Z,100433.64
2018-11-23T17:54:13.187Z,100443.25
2018-11-23T17:58:16.765Z,100442.30
2018-11-23T18:02:23.505Z,100437.53
2018-11-23T18:06:27.087Z,100423.08
2018-11-23T18:10:31.666Z,100417.80
2018-11-23T18:14:35.198Z,100423.42
2018-11-23T18:18:38.725Z,100415.52
2018-11-23T18:22:42.410Z,100408.14
2018-11-23T18:26:45.951Z,100406.89
2018-11-23T18:30:49.882Z,100398.59
2018-11-23T18:34:53.496Z,100394.53
2018-11-23T18:38:57.106Z,100384.92
2018-11-23T18:43:00.730Z,100380.43
2018-11-23T18:47:04.291Z,100371.17
2018-11-23T18:51:07.840Z,100369.03
2018-11-23T18:55:17.913Z,100373.84
2018-11-23T18:59:15.865Z,100363.41
2018-11-23T19:03:19.489Z,100374.27
2018-11-23T19:07:23.274Z,100362.97
2018-11-23T19:11:26.771Z,100366.94
2018-11-23T19:15:30.591Z,100368.73
2018-11-23T19:19:35.068Z,100358.26
2018-11-23T19:23:39.155Z,100355.20
2018-11-23T19:27:42.917Z,100348.27
2018-11-23T19:31:46.640Z,100345.16
2018-11-23T19:35:50.352Z,100341.28
2018-11-23T19:39:54.227Z,100324.61
2018-11-23T19:43:58.335Z,100325.05
2018-11-23T19:48:03.338Z,100334.26
2018-11-23T19:52:06.968Z,100328.98
2018-11-23T19:56:10.733Z,100333.34
2018-11-23T20:00:23.006Z,100314.13
2018-11-23T20:04:26.686Z,100303.74
2018-11-23T20:08:30.309Z,100309.81
2018-11-23T20:12:34.393Z,100305.41
2018-11-23T20:16:38.080Z,100304.14
2018-11-23T20:20:41.755Z,100291.96
2018-11-23T20:24:45.298Z,100288.08
2018-11-23T20:28:48.914Z,100277.56
2018-11-23T20:32:52.472Z,100260.98
2018-11-23T20:36:55.971Z,100268.84
2018-11-23T20:40:59.543Z,100271.41
2018-11-23T20:45:03.163Z,100282.32
2018-11-23T20:49:06.666Z,100259.19
2018-11-23T20:53:10.232Z,100242.09
2018-11-23T20:57:13.819Z,100231.09
2018-11-23T21:01:17.383Z,100215.78
2018-11-23T21:05:21.682Z,100217.02
2018-11-23T21:09:31.068Z,100219.19
2018-11-23T21:13:28.907Z,100201.70
2018-11-23T21:17:32.511Z,100206.98
2018-11-23T21:21:36.231Z,100194.32
2018-11-23T21:25:39.695Z,100185.16
2018-11-23T21:29:43.249Z,100175.99
2018-11-23T21:33:46.779Z,100165.92
2018-11-23T21:37:50.295Z,100170.75
2018-11-23T21:41:53.802Z,100153.27
2018-11-23T21:45:57.304Z,100161.98
2018-11-23T21:50:00.884Z,100145.41
2018-11-23T21:54:04.434Z,100151.56
2018-11-23T21:58:08.425Z,100151.56
2018-11-23T22:02:12.076Z,100147.63
2018-11-23T22:06:15.926Z,100139.42
2018-11-23T22:10:20.106Z,100144.18
2018-11-23T22:14:23.675Z,100132.44
2018-11-23T22:18:27.287Z,100131.17
2018-11-23T22:22:30.902Z,100115.86
2018-11-23T22:26:34.530Z,100115.86
2018-11-23T22:30:38.098Z,100103.20
2018-11-23T22:34:41.714Z,100102.81
2018-11-23T22:38:45.655Z,100115.02
2018-11-23T22:42:51.395Z,100104.95
2018-11-23T22:46:55.028Z,100092.30
2018-11-23T22:50:58.660Z,100071.72
2018-11-23T22:55:02.168Z,100058.63
2018-11-23T22:59:05.964Z,100043.39
2018-11-23T23:03:09.784Z,100047.72
2018-11-23T23:07:13.398Z,100055.17
2018-11-23T23:11:17.360Z,100070.08
2018-11-23T23:15:22.029Z,100075.28
2018-11-23T23:19:25.736Z,100061.31
2018-11-23T23:23:29.223Z,100058.22
2018-11-23T23:27:32.753Z,100065.24
2018-11-23T23:31:36.273Z,100063.06
2018-11-23T23:35:39.805Z,100059.97
2018-11-23T23:39:43.355Z,100061.72
2018-11-23T23:43:46.814Z,100046.44
2018-11-23T23:47:50.369Z,100042.52
2018-11-23T23:51:54.640Z,100028.98
2018-11-23T23:55:58.222Z,100024.59
